sensor_id;sensor_type;location;lat;lon;timestamp;P1;durP1;ratioP1;P2;durP2;ratioP2
59161;SDS011;44942;48.936;8.260;2023-12-07T00:03:00;8.38;;;5.57;;
59161;SDS011;44942;48.936;8.260;2023-12-07T00:08:00;8.43;;;5.82;;
59161;SDS011;44942;48.936;8.260;2023-12-07T00:13:01;7.80;;;5.07;;
59161;SDS011;44942;48.936;8.260;2023-12-07T00:18:02;11.57;;;5.32;;
59161;SDS011;44942;48.936;8.260;2023-12-07T00:23:03;10.98;;;5.55;;
59161;SDS011;44942;48.936;8.260;2023-12-07T00:28:04;7.97;;;4.93;;
59161;SDS011;44942;48.936;8.260;2023-12-07T00:33:05;9.38;;;5.18;;
59161;SDS011;44942;48.936;8.260;2023-12-07T00:38:05;9.00;;;4.97;;
59161;SDS011;44942;48.936;8.260;2023-12-07T00:43:08;8.02;;;5.05;;
59161;SDS011;44942;48.936;8.260;2023-12-07T00:48:08;10.03;;;4.57;;
59161;SDS011;44942;48.936;8.260;2023-12-07T00:53:09;7.87;;;4.97;;
59161;SDS011;44942;48.936;8.260;2023-12-07T00:58:09;6.63;;;4.43;;
59161;SDS011;44942;48.936;8.260;2023-12-07T01:03:10;7.63;;;4.53;;
59161;SDS011;44942;48.936;8.260;2023-12-07T01:08:11;11.43;;;4.60;;
59161;SDS011;44942;48.936;8.260;2023-12-07T01:13:11;7.87;;;4.77;;
59161;SDS011;44942;48.936;8.260;2023-12-07T01:18:12;6.60;;;4.00;;
59161;SDS011;44942;48.936;8.260;2023-12-07T01:23:12;7.03;;;4.10;;
59161;SDS011;44942;48.936;8.260;2023-12-07T01:28:13;7.75;;;3.75;;
59161;SDS011;44942;48.936;8.260;2023-12-07T01:33:14;5.07;;;3.43;;
59161;SDS011;44942;48.936;8.260;2023-12-07T01:38:15;5.45;;;3.88;;
59161;SDS011;44942;48.936;8.260;2023-12-07T01:43:15;5.90;;;3.63;;
59161;SDS011;44942;48.936;8.260;2023-12-07T01:48:16;4.83;;;3.63;;
59161;SDS011;44942;48.936;8.260;2023-12-07T01:53:17;7.23;;;3.47;;
59161;SDS011;44942;48.936;8.260;2023-12-07T01:58:18;7.00;;;3.53;;
59161;SDS011;44942;48.936;8.260;2023-12-07T02:03:19;4.25;;;3.05;;
59161;SDS011;44942;48.936;8.260;2023-12-07T02:13:21;5.13;;;3.43;;
59161;SDS011;44942;48.936;8.260;2023-12-07T02:18:25;5.80;;;3.58;;
59161;SDS011;44942;48.936;8.260;2023-12-07T02:23:33;3.90;;;2.97;;
59161;SDS011;44942;48.936;8.260;2023-12-07T02:28:35;4.13;;;2.92;;
59161;SDS011;44942;48.936;8.260;2023-12-07T02:33:36;7.20;;;3.10;;
59161;SDS011;44942;48.936;8.260;2023-12-07T02:38:36;4.00;;;3.03;;
59161;SDS011;44942;48.936;8.260;2023-12-07T02:43:38;4.57;;;3.00;;
59161;SDS011;44942;48.936;8.260;2023-12-07T02:48:39;3.67;;;2.60;;
59161;SDS011;44942;48.936;8.260;2023-12-07T02:53:40;3.87;;;2.90;;
59161;SDS011;44942;48.936;8.260;2023-12-07T02:58:40;4.27;;;2.83;;
59161;SDS011;44942;48.936;8.260;2023-12-07T03:03:41;3.17;;;2.60;;
59161;SDS011;44942;48.936;8.260;2023-12-07T03:08:42;3.80;;;2.67;;
59161;SDS011;44942;48.936;8.260;2023-12-07T03:13:42;3.87;;;2.70;;
59161;SDS011;44942;48.936;8.260;2023-12-07T03:18:43;3.93;;;2.70;;
59161;SDS011;44942;48.936;8.260;2023-12-07T03:23:43;3.13;;;2.40;;
59161;SDS011;44942;48.936;8.260;2023-12-07T03:28:44;3.27;;;2.60;;
59161;SDS011;44942;48.936;8.260;2023-12-07T03:33:44;3.87;;;2.57;;
59161;SDS011;44942;48.936;8.260;2023-12-07T03:38:45;4.03;;;2.53;;
59161;SDS011;44942;48.936;8.260;2023-12-07T03:43:45;3.57;;;2.43;;
59161;SDS011;44942;48.936;8.260;2023-12-07T03:48:46;2.60;;;2.20;;
59161;SDS011;44942;48.936;8.260;2023-12-07T03:53:47;4.43;;;2.23;;
59161;SDS011;44942;48.936;8.260;2023-12-07T03:58:47;3.83;;;2.33;;
59161;SDS011;44942;48.936;8.260;2023-12-07T04:03:48;2.80;;;1.90;;
59161;SDS011;44942;48.936;8.260;2023-12-07T04:08:48;2.47;;;2.03;;
59161;SDS011;44942;48.936;8.260;2023-12-07T04:13:49;2.75;;;1.90;;
59161;SDS011;44942;48.936;8.260;2023-12-07T04:18:50;2.40;;;2.10;;
59161;SDS011;44942;48.936;8.260;2023-12-07T04:23:50;2.77;;;2.20;;
59161;SDS011;44942;48.936;8.260;2023-12-07T04:28:51;2.70;;;1.90;;
59161;SDS011;44942;48.936;8.260;2023-12-07T04:33:51;2.40;;;1.73;;
59161;SDS011;44942;48.936;8.260;2023-12-07T04:38:52;2.43;;;2.03;;
59161;SDS011;44942;48.936;8.260;2023-12-07T04:43:52;2.43;;;2.17;;
59161;SDS011;44942;48.936;8.260;2023-12-07T04:48:53;2.40;;;1.70;;
59161;SDS011;44942;48.936;8.260;2023-12-07T04:53:53;2.67;;;2.00;;
59161;SDS011;44942;48.936;8.260;2023-12-07T04:58:54;2.10;;;1.90;;
59161;SDS011;44942;48.936;8.260;2023-12-07T05:03:55;2.23;;;1.70;;
59161;SDS011;44942;48.936;8.260;2023-12-07T05:08:55;2.70;;;1.57;;
59161;SDS011;44942;48.936;8.260;2023-12-07T05:13:56;2.87;;;1.67;;
59161;SDS011;44942;48.936;8.260;2023-12-07T05:23:57;1.70;;;1.60;;
59161;SDS011;44942;48.936;8.260;2023-12-07T05:28:58;3.10;;;1.67;;
59161;SDS011;44942;48.936;8.260;2023-12-07T05:33:59;3.27;;;1.93;;
59161;SDS011;44942;48.936;8.260;2023-12-07T05:38:59;1.60;;;1.50;;
59161;SDS011;44942;48.936;8.260;2023-12-07T05:44:00;2.17;;;1.50;;
59161;SDS011;44942;48.936;8.260;2023-12-07T05:49:00;1.57;;;1.47;;
59161;SDS011;44942;48.936;8.260;2023-12-07T05:54:01;12.13;;;2.27;;
59161;SDS011;44942;48.936;8.260;2023-12-07T05:59:03;5.28;;;1.90;;
59161;SDS011;44942;48.936;8.260;2023-12-07T06:04:03;6.03;;;1.70;;
59161;SDS011;44942;48.936;8.260;2023-12-07T06:09:04;8.40;;;1.98;;
59161;SDS011;44942;48.936;8.260;2023-12-07T06:14:08;5.28;;;1.67;;
59161;SDS011;44942;48.936;8.260;2023-12-07T06:19:08;4.00;;;1.60;;
59161;SDS011;44942;48.936;8.260;2023-12-07T06:24:09;3.73;;;2.10;;
59161;SDS011;44942;48.936;8.260;2023-12-07T06:29:10;3.47;;;1.88;;
59161;SDS011;44942;48.936;8.260;2023-12-07T06:34:10;4.50;;;1.60;;
59161;SDS011;44942;48.936;8.260;2023-12-07T06:39:11;2.50;;;1.60;;
59161;SDS011;44942;48.936;8.260;2023-12-07T06:44:11;2.73;;;1.97;;
59161;SDS011;44942;48.936;8.260;2023-12-07T06:49:12;2.57;;;1.63;;
59161;SDS011;44942;48.936;8.260;2023-12-07T06:54:12;1.80;;;1.60;;
59161;SDS011;44942;48.936;8.260;2023-12-07T06:59:13;2.47;;;1.90;;
59161;SDS011;44942;48.936;8.260;2023-12-07T07:04:14;2.13;;;1.40;;
59161;SDS011;44942;48.936;8.260;2023-12-07T07:09:16;18.05;;;2.45;;
59161;SDS011;44942;48.936;8.260;2023-12-07T07:14:16;8.77;;;2.00;;
59161;SDS011;44942;48.936;8.260;2023-12-07T07:19:17;7.30;;;1.90;;
59161;SDS011;44942;48.936;8.260;2023-12-07T07:24:18;7.57;;;2.17;;
59161;SDS011;44942;48.936;8.260;2023-12-07T07:29:18;7.03;;;1.90;;
59161;SDS011;44942;48.936;8.260;2023-12-07T07:34:19;3.33;;;1.90;;
59161;SDS011;44942;48.936;8.260;2023-12-07T07:39:20;3.10;;;1.83;;
59161;SDS011;44942;48.936;8.260;2023-12-07T07:44:20;5.93;;;2.27;;
59161;SDS011;44942;48.936;8.260;2023-12-07T07:49:21;3.50;;;1.53;;
59161;SDS011;44942;48.936;8.260;2023-12-07T07:54:22;4.57;;;1.77;;
59161;SDS011;44942;48.936;8.260;2023-12-07T07:59:22;2.67;;;1.90;;
59161;SDS011;44942;48.936;8.260;2023-12-07T08:04:23;2.33;;;1.97;;
59161;SDS011;44942;48.936;8.260;2023-12-07T08:09:23;4.90;;;1.90;;
59161;SDS011;44942;48.936;8.260;2023-12-07T08:14:24;5.50;;;2.20;;
59161;SDS011;44942;48.936;8.260;2023-12-07T08:19:24;2.37;;;2.00;;
59161;SDS011;44942;48.936;8.260;2023-12-07T08:24:25;2.53;;;1.90;;
59161;SDS011;44942;48.936;8.260;2023-12-07T08:29:26;3.53;;;2.17;;
59161;SDS011;44942;48.936;8.260;2023-12-07T08:34:26;3.17;;;2.03;;
59161;SDS011;44942;48.936;8.260;2023-12-07T08:39:27;2.40;;;1.93;;
59161;SDS011;44942;48.936;8.260;2023-12-07T08:44:27;2.80;;;2.00;;
59161;SDS011;44942;48.936;8.260;2023-12-07T08:49:28;2.97;;;2.40;;
59161;SDS011;44942;48.936;8.260;2023-12-07T08:54:29;4.13;;;2.27;;
59161;SDS011;44942;48.936;8.260;2023-12-07T08:59:29;3.47;;;2.40;;
59161;SDS011;44942;48.936;8.260;2023-12-07T09:04:30;2.15;;;1.95;;
59161;SDS011;44942;48.936;8.260;2023-12-07T09:09:31;3.20;;;2.23;;
59161;SDS011;44942;48.936;8.260;2023-12-07T09:14:32;3.33;;;2.03;;
59161;SDS011;44942;48.936;8.260;2023-12-07T09:19:32;2.83;;;2.23;;
59161;SDS011;44942;48.936;8.260;2023-12-07T09:24:33;3.47;;;2.20;;
59161;SDS011;44942;48.936;8.260;2023-12-07T09:29:33;2.50;;;1.97;;
59161;SDS011;44942;48.936;8.260;2023-12-07T09:34:34;2.53;;;2.20;;
59161;SDS011;44942;48.936;8.260;2023-12-07T09:39:36;2.63;;;2.10;;
59161;SDS011;44942;48.936;8.260;2023-12-07T09:44:36;2.97;;;2.20;;
59161;SDS011;44942;48.936;8.260;2023-12-07T09:49:37;2.73;;;2.27;;
59161;SDS011;44942;48.936;8.260;2023-12-07T09:54:41;2.93;;;2.23;;
59161;SDS011;44942;48.936;8.260;2023-12-07T09:59:43;2.45;;;2.20;;
59161;SDS011;44942;48.936;8.260;2023-12-07T10:04:44;2.60;;;2.20;;
59161;SDS011;44942;48.936;8.260;2023-12-07T10:09:44;2.47;;;2.23;;
59161;SDS011;44942;48.936;8.260;2023-12-07T10:14:45;3.10;;;2.28;;
59161;SDS011;44942;48.936;8.260;2023-12-07T10:19:46;3.23;;;2.30;;
59161;SDS011;44942;48.936;8.260;2023-12-07T10:25:09;3.17;;;2.15;;
59161;SDS011;44942;48.936;8.260;2023-12-07T10:30:10;2.63;;;2.15;;
59161;SDS011;44942;48.936;8.260;2023-12-07T10:40:12;3.50;;;2.10;;
59161;SDS011;44942;48.936;8.260;2023-12-07T10:45:13;2.80;;;2.43;;
59161;SDS011;44942;48.936;8.260;2023-12-07T10:50:16;2.30;;;2.10;;
59161;SDS011;44942;48.936;8.260;2023-12-07T10:55:28;2.60;;;2.40;;
59161;SDS011;44942;48.936;8.260;2023-12-07T11:00:29;2.67;;;2.30;;
59161;SDS011;44942;48.936;8.260;2023-12-07T11:05:30;2.60;;;2.40;;
59161;SDS011;44942;48.936;8.260;2023-12-07T11:10:52;2.40;;;2.13;;
59161;SDS011;44942;48.936;8.260;2023-12-07T11:15:57;2.65;;;2.15;;
59161;SDS011;44942;48.936;8.260;2023-12-07T11:20:58;2.45;;;2.25;;
59161;SDS011;44942;48.936;8.260;2023-12-07T11:31:00;2.93;;;2.37;;
59161;SDS011;44942;48.936;8.260;2023-12-07T11:41:01;2.50;;;2.30;;
59161;SDS011;44942;48.936;8.260;2023-12-07T11:46:02;2.70;;;2.40;;
59161;SDS011;44942;48.936;8.260;2023-12-07T11:51:04;2.40;;;2.20;;
59161;SDS011;44942;48.936;8.260;2023-12-07T11:56:06;2.50;;;2.20;;
59161;SDS011;44942;48.936;8.260;2023-12-07T12:01:08;2.78;;;2.50;;
59161;SDS011;44942;48.936;8.260;2023-12-07T12:06:09;2.50;;;2.30;;
59161;SDS011;44942;48.936;8.260;2023-12-07T12:11:11;2.90;;;2.60;;
59161;SDS011;44942;48.936;8.260;2023-12-07T12:16:12;3.00;;;2.70;;
59161;SDS011;44942;48.936;8.260;2023-12-07T12:21:13;3.63;;;2.50;;
59161;SDS011;44942;48.936;8.260;2023-12-07T12:26:13;3.10;;;2.70;;
59161;SDS011;44942;48.936;8.260;2023-12-07T12:31:16;3.58;;;2.45;;
59161;SDS011;44942;48.936;8.260;2023-12-07T12:36:18;2.77;;;2.40;;
59161;SDS011;44942;48.936;8.260;2023-12-07T12:41:23;5.30;;;3.10;;
59161;SDS011;44942;48.936;8.260;2023-12-07T12:46:23;10.10;;;3.37;;
59161;SDS011;44942;48.936;8.260;2023-12-07T12:51:28;21.20;;;4.80;;
59161;SDS011;44942;48.936;8.260;2023-12-07T12:56:32;19.15;;;4.65;;
59161;SDS011;44942;48.936;8.260;2023-12-07T13:01:32;23.57;;;4.80;;
59161;SDS011;44942;48.936;8.260;2023-12-07T13:06:33;22.65;;;4.82;;
59161;SDS011;44942;48.936;8.260;2023-12-07T13:11:34;19.90;;;4.83;;
59161;SDS011;44942;48.936;8.260;2023-12-07T13:16:34;22.10;;;5.50;;
59161;SDS011;44942;48.936;8.260;2023-12-07T13:21:36;84.43;;;14.30;;
59161;SDS011;44942;48.936;8.260;2023-12-07T13:26:36;56.70;;;10.93;;
59161;SDS011;44942;48.936;8.260;2023-12-07T13:31:37;54.97;;;11.20;;
59161;SDS011;44942;48.936;8.260;2023-12-07T13:36:37;60.07;;;12.63;;
59161;SDS011;44942;48.936;8.260;2023-12-07T13:41:38;75.80;;;15.60;;
59161;SDS011;44942;48.936;8.260;2023-12-07T13:46:39;78.95;;;17.92;;
59161;SDS011;44942;48.936;8.260;2023-12-07T13:51:42;68.70;;;14.82;;
59161;SDS011;44942;48.936;8.260;2023-12-07T13:56:42;74.17;;;16.97;;
59161;SDS011;44942;48.936;8.260;2023-12-07T14:01:43;83.03;;;17.70;;
59161;SDS011;44942;48.936;8.260;2023-12-07T14:06:43;67.87;;;16.50;;
59161;SDS011;44942;48.936;8.260;2023-12-07T14:11:44;54.83;;;14.27;;
59161;SDS011;44942;48.936;8.260;2023-12-07T14:16:44;54.77;;;15.37;;
59161;SDS011;44942;48.936;8.260;2023-12-07T14:21:45;65.07;;;14.80;;
59161;SDS011;44942;48.936;8.260;2023-12-07T14:26:47;60.30;;;14.50;;
59161;SDS011;44942;48.936;8.260;2023-12-07T14:31:48;55.70;;;14.02;;
59161;SDS011;44942;48.936;8.260;2023-12-07T14:36:49;47.23;;;12.90;;
59161;SDS011;44942;48.936;8.260;2023-12-07T14:41:50;81.13;;;15.07;;
59161;SDS011;44942;48.936;8.260;2023-12-07T14:46:51;46.67;;;11.68;;
59161;SDS011;44942;48.936;8.260;2023-12-07T14:51:53;45.07;;;11.93;;
59161;SDS011;44942;48.936;8.260;2023-12-07T14:56:56;39.63;;;12.25;;
59161;SDS011;44942;48.936;8.260;2023-12-07T15:01:57;40.10;;;11.20;;
59161;SDS011;44942;48.936;8.260;2023-12-07T15:06:57;28.73;;;10.97;;
59161;SDS011;44942;48.936;8.260;2023-12-07T15:11:58;38.30;;;11.00;;
59161;SDS011;44942;48.936;8.260;2023-12-07T15:16:58;32.93;;;11.73;;
59161;SDS011;44942;48.936;8.260;2023-12-07T15:21:59;34.40;;;12.30;;
59161;SDS011;44942;48.936;8.260;2023-12-07T15:27:00;36.77;;;12.77;;
59161;SDS011;44942;48.936;8.260;2023-12-07T15:32:00;36.97;;;12.50;;
59161;SDS011;44942;48.936;8.260;2023-12-07T15:37:01;27.30;;;11.47;;
59161;SDS011;44942;48.936;8.260;2023-12-07T15:42:02;29.13;;;12.33;;
59161;SDS011;44942;48.936;8.260;2023-12-07T15:47:03;24.73;;;10.38;;
59161;SDS011;44942;48.936;8.260;2023-12-07T15:52:03;18.20;;;7.37;;
59161;SDS011;44942;48.936;8.260;2023-12-07T15:57:05;26.52;;;10.18;;
59161;SDS011;44942;48.936;8.260;2023-12-07T16:07:06;20.33;;;9.37;;
59161;SDS011;44942;48.936;8.260;2023-12-07T16:12:07;22.00;;;9.50;;
59161;SDS011;44942;48.936;8.260;2023-12-07T16:17:09;24.50;;;9.50;;
59161;SDS011;44942;48.936;8.260;2023-12-07T16:22:10;50.80;;;11.82;;
59161;SDS011;44942;48.936;8.260;2023-12-07T16:27:11;67.40;;;12.53;;
59161;SDS011;44942;48.936;8.260;2023-12-07T16:32:12;55.33;;;11.23;;
59161;SDS011;44942;48.936;8.260;2023-12-07T16:37:12;43.97;;;10.97;;
59161;SDS011;44942;48.936;8.260;2023-12-07T16:42:13;38.70;;;11.03;;
59161;SDS011;44942;48.936;8.260;2023-12-07T16:47:14;38.27;;;10.40;;
59161;SDS011;44942;48.936;8.260;2023-12-07T16:52:15;37.40;;;9.73;;
59161;SDS011;44942;48.936;8.260;2023-12-07T16:57:16;41.85;;;11.05;;
59161;SDS011;44942;48.936;8.260;2023-12-07T17:02:17;53.57;;;11.73;;
59161;SDS011;44942;48.936;8.260;2023-12-07T17:07:18;65.90;;;13.23;;
59161;SDS011;44942;48.936;8.260;2023-12-07T17:12:18;54.00;;;13.53;;
59161;SDS011;44942;48.936;8.260;2023-12-07T17:17:19;59.63;;;16.37;;
59161;SDS011;44942;48.936;8.260;2023-12-07T17:22:19;52.60;;;13.43;;
59161;SDS011;44942;48.936;8.260;2023-12-07T17:27:20;50.10;;;13.07;;
59161;SDS011;44942;48.936;8.260;2023-12-07T17:32:21;55.33;;;13.50;;
59161;SDS011;44942;48.936;8.260;2023-12-07T17:37:21;50.90;;;15.83;;
59161;SDS011;44942;48.936;8.260;2023-12-07T17:42:22;61.83;;;16.13;;
59161;SDS011;44942;48.936;8.260;2023-12-07T17:47:23;70.88;;;17.45;;
59161;SDS011;44942;48.936;8.260;2023-12-07T17:52:26;61.40;;;16.60;;
59161;SDS011;44942;48.936;8.260;2023-12-07T17:57:26;97.50;;;24.97;;
59161;SDS011;44942;48.936;8.260;2023-12-07T18:02:27;77.40;;;27.57;;
59161;SDS011;44942;48.936;8.260;2023-12-07T18:07:27;71.97;;;30.23;;
59161;SDS011;44942;48.936;8.260;2023-12-07T18:12:28;72.60;;;25.20;;
59161;SDS011;44942;48.936;8.260;2023-12-07T18:17:28;72.03;;;26.37;;
59161;SDS011;44942;48.936;8.260;2023-12-07T18:22:29;66.43;;;27.97;;
59161;SDS011;44942;48.936;8.260;2023-12-07T18:27:30;82.23;;;29.43;;
59161;SDS011;44942;48.936;8.260;2023-12-07T18:32:30;65.70;;;27.13;;
59161;SDS011;44942;48.936;8.260;2023-12-07T18:37:31;57.03;;;27.97;;
59161;SDS011;44942;48.936;8.260;2023-12-07T18:42:31;60.33;;;27.60;;
59161;SDS011;44942;48.936;8.260;2023-12-07T18:47:32;56.33;;;26.60;;
59161;SDS011;44942;48.936;8.260;2023-12-07T18:52:32;56.97;;;26.57;;
59161;SDS011;44942;48.936;8.260;2023-12-07T18:57:33;46.27;;;25.80;;
59161;SDS011;44942;48.936;8.260;2023-12-07T19:02:34;49.27;;;25.30;;
59161;SDS011;44942;48.936;8.260;2023-12-07T19:07:34;47.90;;;26.00;;
59161;SDS011;44942;48.936;8.260;2023-12-07T19:12:35;46.20;;;23.05;;
59161;SDS011;44942;48.936;8.260;2023-12-07T19:17:36;39.00;;;22.47;;
59161;SDS011;44942;48.936;8.260;2023-12-07T19:22:36;38.33;;;21.27;;
59161;SDS011;44942;48.936;8.260;2023-12-07T19:27:37;38.40;;;19.97;;
59161;SDS011;44942;48.936;8.260;2023-12-07T19:32:40;36.72;;;19.90;;
59161;SDS011;44942;48.936;8.260;2023-12-07T19:37:41;32.33;;;19.83;;
59161;SDS011;44942;48.936;8.260;2023-12-07T19:42:41;33.07;;;19.57;;
59161;SDS011;44942;48.936;8.260;2023-12-07T19:47:42;33.37;;;19.03;;
59161;SDS011;44942;48.936;8.260;2023-12-07T19:52:43;30.33;;;18.27;;
59161;SDS011;44942;48.936;8.260;2023-12-07T19:57:43;28.17;;;18.20;;
59161;SDS011;44942;48.936;8.260;2023-12-07T20:02:44;27.63;;;16.90;;
59161;SDS011;44942;48.936;8.260;2023-12-07T20:07:44;28.83;;;17.00;;
59161;SDS011;44942;48.936;8.260;2023-12-07T20:12:47;25.63;;;16.63;;
59161;SDS011;44942;48.936;8.260;2023-12-07T20:17:48;23.90;;;16.42;;
59161;SDS011;44942;48.936;8.260;2023-12-07T20:22:48;27.90;;;16.47;;
59161;SDS011;44942;48.936;8.260;2023-12-07T20:27:49;28.20;;;15.40;;
59161;SDS011;44942;48.936;8.260;2023-12-07T20:32:50;23.13;;;15.50;;
59161;SDS011;44942;48.936;8.260;2023-12-07T20:37:50;20.20;;;14.20;;
59161;SDS011;44942;48.936;8.260;2023-12-07T20:42:51;23.30;;;14.30;;
59161;SDS011;44942;48.936;8.260;2023-12-07T20:47:51;19.27;;;14.27;;
59161;SDS011;44942;48.936;8.260;2023-12-07T20:52:52;19.90;;;14.23;;
59161;SDS011;44942;48.936;8.260;2023-12-07T20:57:53;19.08;;;13.60;;
59161;SDS011;44942;48.936;8.260;2023-12-07T21:02:53;16.83;;;12.77;;
59161;SDS011;44942;48.936;8.260;2023-12-07T21:07:55;18.63;;;13.27;;
59161;SDS011;44942;48.936;8.260;2023-12-07T21:12:56;18.98;;;12.85;;
59161;SDS011;44942;48.936;8.260;2023-12-07T21:17:56;17.07;;;13.07;;
59161;SDS011;44942;48.936;8.260;2023-12-07T21:22:57;19.23;;;12.73;;
59161;SDS011;44942;48.936;8.260;2023-12-07T21:27:58;18.40;;;12.93;;
59161;SDS011;44942;48.936;8.260;2023-12-07T21:32:58;16.43;;;11.83;;
59161;SDS011;44942;48.936;8.260;2023-12-07T21:37:59;15.43;;;11.67;;
59161;SDS011;44942;48.936;8.260;2023-12-07T21:42:59;15.73;;;11.43;;
59161;SDS011;44942;48.936;8.260;2023-12-07T21:48:01;38.60;;;12.45;;
59161;SDS011;44942;48.936;8.260;2023-12-07T21:53:02;17.87;;;12.47;;
59161;SDS011;44942;48.936;8.260;2023-12-07T21:58:02;15.63;;;11.63;;
59161;SDS011;44942;48.936;8.260;2023-12-07T22:03:03;23.27;;;10.97;;
59161;SDS011;44942;48.936;8.260;2023-12-07T22:08:04;15.35;;;10.88;;
59161;SDS011;44942;48.936;8.260;2023-12-07T22:13:04;13.07;;;10.20;;
59161;SDS011;44942;48.936;8.260;2023-12-07T22:18:05;14.27;;;11.07;;
59161;SDS011;44942;48.936;8.260;2023-12-07T22:23:05;16.43;;;13.37;;
59161;SDS011;44942;48.936;8.260;2023-12-07T22:28:06;17.63;;;13.10;;
59161;SDS011;44942;48.936;8.260;2023-12-07T22:33:07;14.53;;;11.00;;
59161;SDS011;44942;48.936;8.260;2023-12-07T22:38:07;14.67;;;11.40;;
59161;SDS011;44942;48.936;8.260;2023-12-07T22:43:08;16.63;;;11.37;;
59161;SDS011;44942;48.936;8.260;2023-12-07T22:48:08;14.37;;;10.67;;
59161;SDS011;44942;48.936;8.260;2023-12-07T22:53:09;11.67;;;9.27;;
59161;SDS011;44942;48.936;8.260;2023-12-07T22:58:10;12.93;;;10.07;;
59161;SDS011;44942;48.936;8.260;2023-12-07T23:03:11;11.98;;;9.13;;
59161;SDS011;44942;48.936;8.260;2023-12-07T23:08:11;11.80;;;9.67;;
59161;SDS011;44942;48.936;8.260;2023-12-07T23:13:12;11.70;;;9.40;;
59161;SDS011;44942;48.936;8.260;2023-12-07T23:18:13;11.53;;;8.80;;
59161;SDS011;44942;48.936;8.260;2023-12-07T23:23:13;12.27;;;9.00;;
59161;SDS011;44942;48.936;8.260;2023-12-07T23:28:14;12.00;;;9.13;;
59161;SDS011;44942;48.936;8.260;2023-12-07T23:33:14;10.80;;;8.57;;
59161;SDS011;44942;48.936;8.260;2023-12-07T23:38:15;12.47;;;8.33;;
59161;SDS011;44942;48.936;8.260;2023-12-07T23:43:15;10.37;;;8.30;;
59161;SDS011;44942;48.936;8.260;2023-12-07T23:48:16;10.40;;;8.30;;
59161;SDS011;44942;48.936;8.260;2023-12-07T23:53:17;10.37;;;7.70;;
59161;SDS011;44942;48.936;8.260;2023-12-07T23:58:17;10.20;;;8.00;;
